sensor_id;sensor_type;location;lat;lon;timestamp;P1;durP1;ratioP1;P2;durP2;ratioP2
46633;SDS011;32362;49.986;8.026;2024-03-02T00:21:31;17.38;;;8.52;;
46633;SDS011;32362;49.986;8.026;2024-03-02T00:48:15;23.60;;;14.90;;
46633;SDS011;32362;49.986;8.026;2024-03-02T01:14:56;25.23;;;15.50;;
46633;SDS011;32362;49.986;8.026;2024-03-02T01:41:37;21.05;;;12.52;;
46633;SDS011;32362;49.986;8.026;2024-03-02T02:08:18;19.95;;;10.45;;
46633;SDS011;32362;49.986;8.026;2024-03-02T02:34:59;24.55;;;12.93;;
46633;SDS011;32362;49.986;8.026;2024-03-02T03:01:39;21.17;;;10.02;;
46633;SDS011;32362;49.986;8.026;2024-03-02T03:28:20;25.10;;;14.30;;
46633;SDS011;32362;49.986;8.026;2024-03-02T03:55:01;28.60;;;15.20;;
46633;SDS011;32362;49.986;8.026;2024-03-02T04:21:42;24.95;;;12.68;;
46633;SDS011;32362;49.986;8.026;2024-03-02T04:48:23;29.73;;;16.73;;
46633;SDS011;32362;49.986;8.026;2024-03-02T05:15:04;30.85;;;13.50;;
46633;SDS011;32362;49.986;8.026;2024-03-02T05:41:46;38.78;;;19.60;;
46633;SDS011;32362;49.986;8.026;2024-03-02T06:08:27;41.72;;;22.25;;
46633;SDS011;32362;49.986;8.026;2024-03-02T06:35:08;35.47;;;17.40;;
46633;SDS011;32362;49.986;8.026;2024-03-02T07:01:50;30.08;;;14.93;;
46633;SDS011;32362;49.986;8.026;2024-03-02T07:28:31;29.75;;;15.65;;
46633;SDS011;32362;49.986;8.026;2024-03-02T07:55:12;25.80;;;14.10;;
46633;SDS011;32362;49.986;8.026;2024-03-02T08:21:53;24.67;;;13.25;;
46633;SDS011;32362;49.986;8.026;2024-03-02T08:48:34;26.05;;;11.50;;
46633;SDS011;32362;49.986;8.026;2024-03-02T09:15:15;19.67;;;9.85;;
46633;SDS011;32362;49.986;8.026;2024-03-02T09:41:56;18.15;;;8.45;;
46633;SDS011;32362;49.986;8.026;2024-03-02T10:08:43;13.68;;;7.75;;
46633;SDS011;32362;49.986;8.026;2024-03-02T10:35:28;16.15;;;8.23;;
46633;SDS011;32362;49.986;8.026;2024-03-02T11:02:12;16.23;;;8.13;;
46633;SDS011;32362;49.986;8.026;2024-03-02T11:28:53;16.45;;;8.23;;
46633;SDS011;32362;49.986;8.026;2024-03-02T11:55:36;11.88;;;7.85;;
46633;SDS011;32362;49.986;8.026;2024-03-02T12:22:17;9.65;;;6.75;;
46633;SDS011;32362;49.986;8.026;2024-03-02T12:48:58;8.38;;;5.70;;
46633;SDS011;32362;49.986;8.026;2024-03-02T13:15:47;9.13;;;4.13;;
46633;SDS011;32362;49.986;8.026;2024-03-02T13:42:28;4.75;;;3.58;;
46633;SDS011;32362;49.986;8.026;2024-03-02T14:09:09;4.65;;;3.30;;
46633;SDS011;32362;49.986;8.026;2024-03-02T14:35:50;4.53;;;2.40;;
46633;SDS011;32362;49.986;8.026;2024-03-02T15:02:30;2.43;;;1.93;;
46633;SDS011;32362;49.986;8.026;2024-03-02T15:29:11;3.80;;;2.60;;
46633;SDS011;32362;49.986;8.026;2024-03-02T15:55:51;2.70;;;1.67;;
46633;SDS011;32362;49.986;8.026;2024-03-02T16:22:33;3.03;;;1.70;;
46633;SDS011;32362;49.986;8.026;2024-03-02T16:49:15;3.90;;;2.47;;
46633;SDS011;32362;49.986;8.026;2024-03-02T17:15:56;4.25;;;2.70;;
46633;SDS011;32362;49.986;8.026;2024-03-02T17:42:38;8.43;;;5.28;;
46633;SDS011;32362;49.986;8.026;2024-03-02T18:09:18;9.90;;;3.70;;
46633;SDS011;32362;49.986;8.026;2024-03-02T18:35:59;9.25;;;4.93;;
46633;SDS011;32362;49.986;8.026;2024-03-02T19:02:40;8.55;;;4.25;;
46633;SDS011;32362;49.986;8.026;2024-03-02T19:29:21;7.22;;;4.45;;
46633;SDS011;32362;49.986;8.026;2024-03-02T19:56:08;9.60;;;4.93;;
46633;SDS011;32362;49.986;8.026;2024-03-02T20:22:49;12.65;;;5.82;;
46633;SDS011;32362;49.986;8.026;2024-03-02T20:49:30;6.03;;;3.50;;
46633;SDS011;32362;49.986;8.026;2024-03-02T21:16:11;7.97;;;4.17;;
46633;SDS011;32362;49.986;8.026;2024-03-02T21:42:53;9.07;;;5.40;;
46633;SDS011;32362;49.986;8.026;2024-03-02T22:09:36;14.55;;;7.13;;
46633;SDS011;32362;49.986;8.026;2024-03-02T22:36:17;16.30;;;7.90;;
46633;SDS011;32362;49.986;8.026;2024-03-02T23:03:00;18.48;;;8.77;;
46633;SDS011;32362;49.986;8.026;2024-03-02T23:29:42;16.55;;;8.95;;
46633;SDS011;32362;49.986;8.026;2024-03-02T23:56:24;18.13;;;9.73;;
